createdAt,value
2018-05-25T03:47:04.447Z,10
2018-05-25T03:47:25.109Z,10
2018-05-25T03:47:45.892Z,10
2018-05-25T03:48:06.809Z,10
2018-05-25T03:48:27.823Z,10
2018-05-25T03:48:48.691Z,10
2018-05-25T03:49:09.957Z,10
2018-05-25T03:49:30.717Z,10
2018-05-25T03:49:51.692Z,10
2018-05-25T03:50:12.451Z,10
2018-05-25T03:54:37.161Z,15
2018-05-25T03:54:58.262Z,15
2018-05-25T03:56:55.802Z,15
2018-05-25T03:57:17.215Z,15
2018-05-25T03:59:13.980Z,15
2018-05-25T04:01:12.005Z,15
2018-05-25T04:03:28.212Z,15
2018-05-25T04:03:49.070Z,15
2018-05-25T04:04:10.097Z,15
2018-05-25T04:06:14.442Z,15
2018-05-25T04:07:53.404Z,15
2018-05-25T04:08:15.055Z,15
2018-05-25T04:11:27.182Z,15
2018-05-25T04:13:19.175Z,15
2018-05-25T04:17:37.221Z,20
2018-05-25T04:17:58.242Z,20
2018-05-25T04:22:51.165Z,20
2018-05-25T04:23:12.834Z,20
2018-05-25T04:23:33.536Z,20
2018-05-25T04:25:23.192Z,20
2018-05-25T04:27:32.700Z,20
2018-05-25T04:39:55.010Z,25
2018-05-25T04:40:39.695Z,25
2018-05-25T04:41:00.884Z,25
2018-05-25T04:41:57.969Z,25
2018-05-25T04:42:19.056Z,30
2018-05-25T04:42:39.944Z,30
2018-05-25T04:43:01.333Z,30
2018-05-25T04:43:21.945Z,30
2018-05-25T04:43:42.992Z,30
2018-05-25T04:44:04.445Z,30
2018-05-25T04:44:26.217Z,30
2018-05-25T04:44:47.103Z,30
2018-05-25T04:45:08.189Z,30
2018-05-25T04:45:30.303Z,30
2018-05-25T04:45:51.831Z,30
2018-05-25T04:46:12.936Z,30
2018-05-25T04:47:50.530Z,30
2018-05-25T04:48:11.844Z,30
2018-05-25T04:48:58.948Z,30
2018-05-25T04:49:19.981Z,30
2018-05-25T04:49:41.537Z,30
2018-05-25T04:50:39.968Z,25
2018-05-25T04:52:24.176Z,25
2018-05-25T04:52:46.044Z,25
2018-05-25T04:55:14.048Z,25
2018-05-25T04:55:58.569Z,25
2018-05-25T04:56:19.290Z,25
2018-05-25T04:56:40.058Z,25
2018-05-25T04:57:02.502Z,25
2018-05-25T04:57:24.598Z,25
2018-05-25T04:57:45.561Z,25
2018-05-25T04:58:06.598Z,25
2018-05-25T04:58:28.610Z,25
2018-05-25T04:58:50.564Z,25
2018-05-25T04:59:12.454Z,25
2018-05-25T04:59:33.701Z,25
2018-05-25T04:59:55.329Z,25
2018-05-25T05:00:16.639Z,25
2018-05-25T05:00:38.536Z,25
2018-05-25T05:01:00.853Z,25
2018-05-25T05:01:22.395Z,25
2018-05-25T05:01:43.631Z,25
2018-05-25T05:02:05.457Z,25
2018-05-25T05:02:26.689Z,25
2018-05-25T05:02:47.609Z,25
2018-05-25T05:05:14.349Z,30
2018-05-25T05:06:00.115Z,30
2018-05-25T05:06:21.342Z,30
2018-05-25T05:07:03.541Z,30
2018-05-25T05:07:24.569Z,30
2018-05-25T05:08:13.046Z,30
2018-05-25T05:08:33.945Z,30
2018-05-25T05:09:30.715Z,30
2018-05-25T05:09:51.710Z,30
2018-05-25T05:10:36.960Z,25
2018-05-25T05:10:58.282Z,25
2018-05-25T05:11:20.685Z,25
2018-05-25T05:12:12.457Z,30
2018-05-25T05:13:03.849Z,30
2018-05-25T05:13:26.192Z,30
2018-05-25T05:13:47.444Z,30
2018-05-25T05:14:08.697Z,35
2018-05-25T05:14:31.442Z,35
2018-05-25T05:14:53.581Z,35
2018-05-25T05:15:15.073Z,35
2018-05-25T05:15:36.684Z,40
2018-05-25T05:15:58.564Z,40
2018-05-25T05:16:20.696Z,40
2018-05-25T05:16:42.452Z,40
2018-05-25T05:17:03.787Z,40
2018-05-25T05:17:25.951Z,40
2018-05-25T05:17:47.448Z,40
2018-05-25T05:18:08.705Z,40
2018-05-25T05:18:29.692Z,40
2018-05-25T05:18:50.814Z,40
2018-05-25T05:19:12.427Z,40
2018-05-25T05:19:34.030Z,40
2018-05-25T05:19:54.738Z,40
2018-05-25T05:20:15.692Z,40
2018-05-25T05:20:36.411Z,40
2018-05-25T05:20:58.006Z,40
2018-05-25T05:21:19.521Z,40
2018-05-25T05:21:40.490Z,35
2018-05-25T05:22:02.089Z,35
2018-05-25T05:22:24.437Z,35
2018-05-25T05:22:46.557Z,35
2018-05-25T05:23:07.438Z,35
2018-05-25T05:23:28.238Z,35
2018-05-25T05:23:49.051Z,35
2018-05-25T05:24:09.913Z,35
2018-05-25T05:24:31.017Z,35
2018-05-25T05:24:52.502Z,30
2018-05-25T05:25:13.409Z,30
2018-05-25T05:25:34.337Z,30
2018-05-25T05:25:55.729Z,30
2018-05-25T05:26:17.087Z,30
2018-05-25T05:26:37.963Z,30
2018-05-25T05:26:59.500Z,30
2018-05-25T05:27:20.361Z,30
2018-05-25T05:27:41.613Z,30
2018-05-25T05:28:02.379Z,30
2018-05-25T05:28:23.045Z,30
2018-05-25T05:28:44.043Z,30
2018-05-25T05:29:04.891Z,30
2018-05-25T05:29:26.589Z,30
2018-05-25T05:29:47.981Z,30
2018-05-25T05:30:08.732Z,30
2018-05-25T05:30:29.284Z,30
2018-05-25T05:30:50.635Z,30
2018-05-25T05:37:40.393Z,30
2018-05-25T05:38:25.851Z,30
2018-05-25T05:39:07.654Z,30
2018-05-25T05:39:28.216Z,30
2018-05-25T05:39:49.691Z,30
2018-05-25T05:40:10.427Z,30
2018-05-25T05:40:31.217Z,30
2018-05-25T05:40:52.784Z,30
2018-05-25T05:41:13.675Z,30
2018-05-25T05:41:35.210Z,30
2018-05-25T05:41:55.976Z,30
2018-05-25T05:42:16.864Z,30
2018-05-25T05:42:37.874Z,30
2018-05-25T05:42:58.719Z,30
2018-05-25T05:43:19.382Z,30
2018-05-25T05:43:40.188Z,30
2018-05-25T05:44:01.039Z,30
2018-05-25T05:44:21.847Z,30
2018-05-25T05:44:42.437Z,30
2018-05-25T05:45:03.681Z,30
2018-05-25T05:45:24.652Z,30
2018-05-25T05:45:46.212Z,30
2018-05-25T05:46:07.058Z,30
2018-05-25T05:46:28.078Z,30
2018-05-25T05:46:48.787Z,30
2018-05-25T05:47:10.514Z,30
2018-05-25T05:47:32.259Z,30
2018-05-25T05:47:53.948Z,30
2018-05-25T05:48:15.132Z,30
2018-05-25T05:48:36.712Z,30
2018-05-25T05:48:58.183Z,30
2018-05-25T05:49:20.063Z,30
2018-05-25T05:49:40.518Z,30
2018-05-25T05:50:01.411Z,30
2018-05-25T05:50:22.139Z,30
2018-05-25T05:50:42.849Z,30
2018-05-25T05:51:03.879Z,30
2018-05-25T05:51:24.680Z,30
2018-05-25T05:51:45.745Z,30
2018-05-25T05:52:06.439Z,30
2018-05-25T05:52:28.256Z,30
2018-05-25T05:52:49.123Z,30
2018-05-25T05:53:12.218Z,30
2018-05-25T05:53:33.268Z,30
2018-05-25T05:53:55.157Z,30
2018-05-25T05:54:15.680Z,30
2018-05-25T05:54:36.427Z,30
2018-05-25T05:54:57.074Z,30
2018-05-25T05:55:17.841Z,30
2018-05-25T05:55:38.550Z,30
2018-05-25T05:55:59.877Z,30
2018-05-25T05:56:21.497Z,30
2018-05-25T05:56:43.072Z,30
2018-05-25T05:57:03.889Z,30
2018-05-25T05:57:27.226Z,30
2018-05-25T05:57:47.796Z,30
2018-05-25T05:58:08.459Z,30
2018-05-25T05:58:29.630Z,30
2018-05-25T05:58:50.240Z,30
2018-05-25T05:59:11.004Z,30
2018-05-25T05:59:31.652Z,30
2018-05-25T05:59:52.392Z,30
2018-05-25T06:00:13.124Z,30
2018-05-25T06:00:34.285Z,30
2018-05-25T06:00:55.195Z,30
2018-05-25T06:01:15.875Z,30
2018-05-25T06:01:36.589Z,30
2018-05-25T06:01:57.363Z,30
2018-05-25T06:02:18.054Z,30
2018-05-25T06:02:39.254Z,30
2018-05-25T06:03:00.875Z,30
2018-05-25T06:03:21.725Z,30
2018-05-25T06:03:42.346Z,30
2018-05-25T06:04:04.689Z,30
2018-05-25T06:04:26.353Z,30
2018-05-25T06:04:48.367Z,30
2018-05-25T06:05:11.313Z,30
2018-05-25T06:05:33.430Z,30
2018-05-25T06:05:54.488Z,30
2018-05-25T06:06:15.413Z,30
2018-05-25T06:06:36.729Z,30
2018-05-25T06:06:59.792Z,30
2018-05-25T06:07:20.381Z,30
2018-05-25T06:07:41.206Z,30
2018-05-25T06:08:02.028Z,30
2018-05-25T06:08:22.797Z,30
2018-05-25T06:08:43.408Z,30
2018-05-25T06:09:04.271Z,30
2018-05-25T06:09:25.908Z,30
2018-05-25T06:09:46.668Z,30
2018-05-25T06:10:09.176Z,30
2018-05-25T06:10:29.788Z,30
2018-05-25T06:10:50.461Z,30
2018-05-25T06:11:11.344Z,30
2018-05-25T06:11:32.855Z,30
2018-05-25T06:11:54.226Z,30
2018-05-25T06:12:16.712Z,30
2018-05-25T06:12:37.534Z,30
2018-05-25T06:12:58.482Z,30
2018-05-25T06:13:19.064Z,30
2018-05-25T06:13:40.713Z,30
2018-05-25T06:14:01.375Z,30
2018-05-25T06:14:22.803Z,30
2018-05-25T06:14:44.260Z,30
2018-05-25T06:15:05.614Z,30
2018-05-25T06:15:26.549Z,30
2018-05-25T06:15:47.843Z,30
2018-05-25T06:16:08.958Z,30
2018-05-25T06:16:29.569Z,30
2018-05-25T06:16:50.696Z,30
2018-05-25T06:17:11.391Z,30
2018-05-25T06:17:32.112Z,30
2018-05-25T06:17:52.983Z,30
2018-05-25T06:18:13.748Z,30
2018-05-25T06:18:35.704Z,30
2018-05-25T06:18:56.810Z,30
2018-05-25T06:19:17.875Z,30
2018-05-25T06:19:38.633Z,30
2018-05-25T06:20:00.015Z,30
2018-05-25T06:20:21.035Z,30
2018-05-25T06:20:42.187Z,30
2018-05-25T06:21:04.240Z,30
2018-05-25T06:21:25.533Z,30
2018-05-25T06:21:47.160Z,30
2018-05-25T06:22:08.856Z,30
2018-05-25T06:22:29.731Z,30
2018-05-25T06:22:52.740Z,30
2018-05-25T06:23:14.241Z,30
2018-05-25T06:23:35.127Z,30
2018-05-25T06:23:56.741Z,30
2018-05-25T06:24:17.431Z,30
2018-05-25T06:24:38.946Z,30
2018-05-25T06:25:01.370Z,30
2018-05-25T06:25:22.249Z,30
2018-05-25T06:25:43.903Z,30
2018-05-25T06:26:06.269Z,30
2018-05-25T06:26:27.716Z,30
2018-05-25T06:26:48.452Z,30
2018-05-25T06:27:09.043Z,30
2018-05-25T06:27:29.811Z,30
2018-05-25T06:27:50.452Z,30
2018-05-25T06:28:10.935Z,30
2018-05-25T06:28:31.624Z,30
2018-05-25T06:28:52.319Z,35
2018-05-25T06:29:14.157Z,35
2018-05-25T06:29:35.706Z,35
2018-05-25T06:29:56.334Z,35
2018-05-25T06:30:17.219Z,35
2018-05-25T06:30:37.899Z,35
2018-05-25T06:30:58.820Z,35
2018-05-25T06:31:20.369Z,35
2018-05-25T06:31:41.231Z,35
2018-05-25T06:32:01.676Z,35
2018-05-25T06:32:23.227Z,35
2018-05-25T06:32:43.858Z,35
2018-05-25T06:33:04.777Z,35
2018-05-25T06:33:25.752Z,35
2018-05-25T06:33:46.771Z,35
2018-05-25T06:34:07.286Z,35
2018-05-25T06:34:28.254Z,35
2018-05-25T06:34:49.765Z,35
2018-05-25T06:35:10.496Z,35
2018-05-25T06:35:31.742Z,35
2018-05-25T06:35:53.247Z,35
2018-05-25T06:36:14.228Z,35
2018-05-25T06:36:34.923Z,35
2018-05-25T06:36:56.253Z,35
2018-05-25T06:37:16.677Z,35
2018-05-25T06:37:37.131Z,35
2018-05-25T06:37:57.590Z,35
2018-05-25T06:38:17.932Z,35
2018-05-25T06:38:38.284Z,35
2018-05-25T06:38:58.626Z,35
2018-05-25T06:39:19.056Z,35
2018-05-25T06:39:39.769Z,35
2018-05-25T06:40:01.249Z,35
2018-05-25T06:40:22.136Z,35
2018-05-25T06:40:42.856Z,35
2018-05-25T06:41:03.673Z,35
2018-05-25T06:41:24.445Z,35
2018-05-25T06:41:45.040Z,35
2018-05-25T06:42:05.967Z,35
2018-05-25T06:42:27.670Z,35
2018-05-25T06:42:48.369Z,35
2018-05-25T06:43:10.266Z,35
2018-05-25T06:43:31.088Z,35
2018-05-25T06:43:51.737Z,35
2018-05-25T06:44:12.605Z,35
2018-05-25T06:44:33.345Z,35
2018-05-25T06:44:54.204Z,35
2018-05-25T06:45:15.502Z,35
2018-05-25T06:45:36.266Z,35
2018-05-25T06:45:57.407Z,35
2018-05-25T06:46:18.162Z,35
2018-05-25T06:46:38.922Z,35
2018-05-25T06:47:00.572Z,35
2018-05-25T06:47:21.308Z,35
2018-05-25T06:47:41.970Z,35
2018-05-25T06:48:03.769Z,35
2018-05-25T06:48:24.375Z,35
2018-05-25T06:48:45.755Z,35
2018-05-25T06:49:06.466Z,35
2018-05-25T06:49:27.927Z,35
2018-05-25T06:49:48.496Z,35
2018-05-25T06:50:09.797Z,35
2018-05-25T06:50:31.269Z,35
2018-05-25T06:50:52.013Z,35
2018-05-25T06:51:15.769Z,35
2018-05-25T06:51:36.229Z,35
2018-05-25T06:51:56.878Z,35
2018-05-25T06:52:18.266Z,35
2018-05-25T06:52:38.875Z,35
2018-05-25T06:52:59.321Z,35
2018-05-25T06:53:20.526Z,35
2018-05-25T06:53:41.826Z,35
2018-05-25T06:54:02.554Z,30
2018-05-25T06:54:23.361Z,35
2018-05-25T06:54:44.492Z,30
2018-05-25T06:55:05.863Z,30
2018-05-25T06:55:26.338Z,30
2018-05-25T06:55:47.844Z,30
2018-05-25T06:56:08.504Z,30
2018-05-25T06:56:29.844Z,30
2018-05-25T06:56:50.499Z,30
2018-05-25T06:57:11.448Z,30
2018-05-25T06:57:32.045Z,30
2018-05-25T06:57:52.841Z,30
2018-05-25T06:58:13.525Z,30
2018-05-25T06:58:34.759Z,30
2018-05-25T06:58:55.649Z,30
2018-05-25T06:59:16.572Z,30
2018-05-25T06:59:37.820Z,30
2018-05-25T06:59:58.384Z,30
2018-05-25T07:00:19.948Z,30
2018-05-25T07:00:40.500Z,30
2018-05-25T07:01:01.229Z,30
2018-05-25T07:01:22.026Z,30
2018-05-25T07:01:42.879Z,30
2018-05-25T07:02:03.857Z,30
2018-05-25T07:02:24.981Z,30
2018-05-25T07:02:45.549Z,30
2018-05-25T07:03:07.725Z,30
2018-05-25T07:03:29.275Z,30
2018-05-25T07:03:50.239Z,30
2018-05-25T07:04:11.711Z,30
2018-05-25T07:04:32.537Z,30
2018-05-25T07:04:53.513Z,30
2018-05-25T07:05:14.858Z,30
2018-05-25T07:05:37.754Z,30
2018-05-25T07:05:58.634Z,30
2018-05-25T07:06:19.710Z,30
2018-05-25T07:06:40.567Z,30
2018-05-25T07:07:02.132Z,30
2018-05-25T07:07:23.173Z,30
2018-05-25T07:07:45.355Z,30
2018-05-25T07:08:06.907Z,30
2018-05-25T07:08:27.851Z,30
2018-05-25T07:08:48.580Z,30
2018-05-25T07:09:10.255Z,30
2018-05-25T07:09:30.932Z,30
2018-05-25T07:09:51.484Z,30
2018-05-25T07:10:12.782Z,30
2018-05-25T07:10:34.317Z,30
2018-05-25T07:10:55.219Z,30
2018-05-25T07:11:17.104Z,30
2018-05-25T07:11:37.821Z,30
2018-05-25T07:11:59.561Z,30
2018-05-25T07:12:20.579Z,30
2018-05-25T07:12:42.373Z,30
2018-05-25T07:13:03.080Z,30
2018-05-25T07:13:23.757Z,30
2018-05-25T07:13:44.884Z,30
2018-05-25T07:14:05.788Z,30
2018-05-25T07:14:26.538Z,30
2018-05-25T07:14:47.219Z,30
2018-05-25T07:15:07.737Z,30
2018-05-25T07:15:29.792Z,30
2018-05-25T07:15:50.725Z,30
2018-05-25T07:16:11.286Z,30
2018-05-25T07:16:32.316Z,30
2018-05-25T07:16:53.618Z,30
2018-05-25T07:17:14.838Z,30
2018-05-25T07:17:36.486Z,30
2018-05-25T07:17:57.301Z,30
2018-05-25T07:18:18.864Z,30
2018-05-25T07:18:39.545Z,30
2018-05-25T07:19:01.214Z,30
2018-05-25T07:19:23.085Z,30
2018-05-25T07:19:44.818Z,30
2018-05-25T07:20:07.470Z,30
2018-05-25T07:20:28.319Z,35
2018-05-25T07:20:49.368Z,35
2018-05-25T07:21:10.875Z,35
2018-05-25T07:21:32.506Z,35
2018-05-25T07:21:53.175Z,35
2018-05-25T07:22:13.928Z,35
2018-05-25T07:22:34.573Z,35
2018-05-25T07:22:55.156Z,35
2018-05-25T07:23:15.785Z,35
2018-05-25T07:23:36.327Z,35
2018-05-25T07:23:57.281Z,35
2018-05-25T07:24:17.971Z,35
2018-05-25T07:24:39.795Z,35
2018-05-25T07:25:00.749Z,35
2018-05-25T07:25:23.794Z,35
2018-05-25T07:25:44.291Z,35
2018-05-25T07:26:05.407Z,35
2018-05-25T07:26:26.811Z,35
2018-05-25T07:26:48.513Z,35
2018-05-25T07:27:09.796Z,35
2018-05-25T07:27:30.700Z,35
2018-05-25T07:27:51.736Z,35
2018-05-25T07:28:13.016Z,35
2018-05-25T07:28:33.608Z,35
2018-05-25T07:28:54.264Z,35
2018-05-25T07:29:16.758Z,35
2018-05-25T07:29:37.293Z,35
2018-05-25T07:29:58.116Z,35
2018-05-25T07:30:19.053Z,35
2018-05-25T07:30:40.392Z,35
2018-05-25T07:31:01.694Z,35
2018-05-25T07:31:22.256Z,35
2018-05-25T07:31:43.157Z,35
2018-05-25T07:32:03.773Z,35
2018-05-25T07:32:24.557Z,35
2018-05-25T07:32:45.729Z,35
2018-05-25T07:33:06.698Z,35
2018-05-25T07:33:27.849Z,35
2018-05-25T07:33:49.122Z,35
2018-05-25T07:34:11.054Z,35
2018-05-25T07:34:31.419Z,35
2018-05-25T07:34:53.037Z,35
2018-05-25T07:35:13.779Z,35
2018-05-25T07:35:34.545Z,35
2018-05-25T07:35:55.328Z,35
2018-05-25T07:36:15.919Z,35
2018-05-25T07:36:36.758Z,35
2018-05-25T07:36:57.663Z,35
2018-05-25T07:37:19.224Z,35
2018-05-25T07:37:40.997Z,35
2018-05-25T07:38:01.829Z,35
2018-05-25T07:38:22.406Z,35
2018-05-25T07:38:43.740Z,35
2018-05-25T07:39:05.808Z,35
2018-05-25T07:39:26.368Z,35
2018-05-25T07:39:46.790Z,35
2018-05-25T07:40:07.483Z,35
2018-05-25T07:40:28.064Z,35
2018-05-25T07:40:49.132Z,40
2018-05-25T07:41:09.946Z,40
2018-05-25T07:41:30.913Z,40
2018-05-25T07:41:52.782Z,40
2018-05-25T07:42:14.127Z,40
2018-05-25T07:42:35.404Z,40
2018-05-25T07:42:56.377Z,40
2018-05-25T07:43:17.229Z,40
2018-05-25T07:43:38.066Z,40
2018-05-25T07:43:58.619Z,40
2018-05-25T07:44:19.364Z,40
2018-05-25T07:44:39.927Z,40
2018-05-25T07:45:00.426Z,40
2018-05-25T07:45:21.049Z,45
2018-05-25T07:45:41.628Z,40
2018-05-25T07:46:02.836Z,40
2018-05-25T07:46:24.445Z,40
2018-05-25T07:46:45.752Z,40
2018-05-25T07:47:06.518Z,40
2018-05-25T07:47:27.286Z,40
2018-05-25T07:47:48.027Z,40
2018-05-25T07:48:10.815Z,40
2018-05-25T07:48:31.900Z,40
2018-05-25T07:48:54.319Z,40
2018-05-25T07:49:15.096Z,40
2018-05-25T07:49:37.816Z,35
2018-05-25T07:49:58.369Z,40
2018-05-25T07:50:19.308Z,40
2018-05-25T07:50:40.817Z,40
2018-05-25T07:51:02.273Z,35
2018-05-25T07:51:24.237Z,30
2018-05-25T07:51:45.295Z,35
2018-05-25T07:52:06.228Z,35
2018-05-25T07:52:26.598Z,30
2018-05-25T07:52:47.906Z,35
2018-05-25T07:53:10.884Z,30
2018-05-25T07:53:32.491Z,30
2018-05-25T07:53:53.757Z,30
2018-05-25T07:54:15.862Z,30
2018-05-25T07:54:37.127Z,35
2018-05-25T07:54:58.578Z,35
2018-05-25T07:55:19.241Z,35
2018-05-25T07:55:39.991Z,35
2018-05-25T07:56:00.630Z,35
2018-05-25T07:56:21.932Z,35
2018-05-25T07:56:42.813Z,35
2018-05-25T07:57:04.486Z,35
2018-05-25T07:57:26.368Z,35
2018-05-25T07:57:47.069Z,35
2018-05-25T07:58:08.423Z,35
2018-05-25T07:58:29.829Z,35
2018-05-25T07:58:50.391Z,35
2018-05-25T07:59:11.851Z,35
2018-05-25T07:59:32.535Z,35
2018-05-25T07:59:53.340Z,35
2018-05-25T08:00:14.159Z,35
2018-05-25T08:00:35.231Z,35
2018-05-25T08:00:56.861Z,35
2018-05-25T08:01:17.543Z,35
2018-05-25T08:01:39.284Z,35
2018-05-25T08:02:00.369Z,35
2018-05-25T08:02:21.105Z,40
2018-05-25T08:02:42.334Z,35
2018-05-25T08:03:02.836Z,40
2018-05-25T08:03:23.366Z,40
2018-05-25T08:03:44.383Z,40
2018-05-25T08:04:05.812Z,40
2018-05-25T08:04:28.052Z,40
2018-05-25T08:04:49.334Z,35
2018-05-25T08:05:09.895Z,40
2018-05-25T08:05:30.457Z,35
2018-05-25T08:05:51.821Z,35
2018-05-25T08:06:12.380Z,35
2018-05-25T08:06:32.911Z,35
2018-05-25T08:06:53.484Z,40
2018-05-25T08:07:14.015Z,40
2018-05-25T08:07:35.545Z,40
2018-05-25T08:07:56.291Z,40
2018-05-25T08:08:17.268Z,40
2018-05-25T08:08:38.658Z,40
2018-05-25T08:09:00.678Z,40
2018-05-25T08:09:22.370Z,40
2018-05-25T08:09:44.192Z,40
2018-05-25T08:10:04.741Z,40
2018-05-25T08:10:25.944Z,40
2018-05-25T08:10:46.716Z,40
2018-05-25T08:11:07.122Z,40
2018-05-25T08:11:28.565Z,40
2018-05-25T08:11:49.353Z,35
2018-05-25T08:12:10.301Z,30
2018-05-25T08:12:31.174Z,35
2018-05-25T08:12:53.120Z,35
2018-05-25T08:13:14.462Z,35
2018-05-25T08:13:34.940Z,35
2018-05-25T08:13:55.571Z,35
2018-05-25T08:14:16.463Z,30
2018-05-25T08:14:37.535Z,35
2018-05-25T08:14:59.031Z,35
2018-05-25T08:15:21.347Z,30
2018-05-25T08:15:42.608Z,30
2018-05-25T08:16:04.445Z,30
2018-05-25T08:16:25.879Z,30
2018-05-25T08:16:46.930Z,35
2018-05-25T08:17:09.356Z,30
2018-05-25T08:17:30.590Z,40
2018-05-25T08:17:51.460Z,40
2018-05-25T08:18:12.851Z,40
2018-05-25T08:18:34.388Z,35
2018-05-25T08:18:55.533Z,40
2018-05-25T08:19:16.363Z,40
2018-05-25T08:19:37.249Z,40
2018-05-25T08:19:58.913Z,40
2018-05-25T08:20:19.693Z,40
2018-05-25T08:20:40.819Z,40
2018-05-25T08:21:01.700Z,40
2018-05-25T08:21:23.480Z,40
2018-05-25T08:21:44.450Z,40
2018-05-25T08:22:05.683Z,40
2018-05-25T08:22:26.448Z,40
2018-05-25T08:22:47.271Z,40
2018-05-25T08:23:11.805Z,40
2018-05-25T08:23:32.645Z,40
2018-05-25T08:23:53.390Z,40
2018-05-25T08:24:14.227Z,40
2018-05-25T08:24:35.553Z,40
2018-05-25T08:24:56.664Z,40
2018-05-25T08:25:17.586Z,40
2018-05-25T08:25:39.074Z,35
2018-05-25T08:26:00.332Z,35
2018-05-25T08:26:22.231Z,35
2018-05-25T08:26:44.958Z,30
2018-05-25T08:27:09.366Z,35
2018-05-25T08:27:31.055Z,30
2018-05-25T08:27:52.978Z,35
2018-05-25T08:28:14.059Z,35
2018-05-25T08:28:35.550Z,30
2018-05-25T08:28:57.151Z,30
2018-05-25T08:29:18.776Z,30
2018-05-25T08:29:39.535Z,30
2018-05-25T08:30:00.325Z,35
2018-05-25T08:30:20.937Z,35
2018-05-25T08:30:41.526Z,30
2018-05-25T08:31:02.332Z,35
2018-05-25T08:31:23.073Z,40
2018-05-25T08:31:43.732Z,35
2018-05-25T08:32:05.163Z,35
2018-05-25T08:32:25.967Z,35
2018-05-25T08:32:46.820Z,35
2018-05-25T08:33:07.432Z,35
2018-05-25T08:33:28.136Z,35
2018-05-25T08:33:49.141Z,35
2018-05-25T08:34:10.549Z,35
2018-05-25T08:34:31.287Z,35
2018-05-25T08:34:52.876Z,30
2018-05-25T08:35:14.327Z,40
2018-05-25T08:35:35.765Z,35
2018-05-25T08:35:57.363Z,35
2018-05-25T08:36:18.224Z,35
2018-05-25T08:36:39.344Z,35
2018-05-25T08:37:00.048Z,35
2018-05-25T08:37:20.821Z,35
2018-05-25T08:37:41.532Z,35
2018-05-25T08:38:02.066Z,35
2018-05-25T08:38:22.667Z,35
2018-05-25T08:38:44.296Z,35
2018-05-25T08:39:06.068Z,35
2018-05-25T08:39:26.607Z,35
2018-05-25T08:39:47.262Z,35
2018-05-25T08:40:07.889Z,35
2018-05-25T08:40:29.450Z,35
2018-05-25T08:40:50.273Z,35
2018-05-25T08:41:10.983Z,35
2018-05-25T08:41:32.736Z,35
2018-05-25T08:41:53.355Z,35
2018-05-25T08:42:14.006Z,40
2018-05-25T08:42:35.407Z,35
2018-05-25T08:42:56.091Z,35
2018-05-25T08:43:17.181Z,35
2018-05-25T08:43:39.267Z,35
2018-05-25T08:44:00.199Z,30
2018-05-25T08:44:21.029Z,30
2018-05-25T08:44:43.240Z,30
2018-05-25T08:45:04.940Z,30
2018-05-25T08:45:25.583Z,35
2018-05-25T08:45:47.156Z,35
2018-05-25T08:46:08.029Z,35
2018-05-25T08:46:29.579Z,35
2018-05-25T08:46:51.868Z,35
2018-05-25T08:47:13.066Z,35
2018-05-25T08:47:34.423Z,35
2018-05-25T08:47:55.120Z,35
2018-05-25T08:48:17.295Z,35
2018-05-25T08:48:39.513Z,35
2018-05-25T08:48:59.973Z,35
2018-05-25T08:49:20.630Z,35
2018-05-25T08:49:42.812Z,35
2018-05-25T08:50:04.385Z,35
2018-05-25T08:50:26.513Z,35
2018-05-25T08:50:47.306Z,30
2018-05-25T08:51:09.094Z,35
2018-05-25T08:51:30.853Z,30
2018-05-25T08:51:51.729Z,30
2018-05-25T08:52:12.406Z,35
2018-05-25T08:52:33.105Z,35
2018-05-25T08:52:56.386Z,30
2018-05-25T08:53:17.039Z,30
2018-05-25T08:53:37.835Z,30
2018-05-25T08:53:58.532Z,35
2018-05-25T08:54:19.509Z,35
2018-05-25T08:54:41.516Z,35
2018-05-25T08:55:03.018Z,35
2018-05-25T08:55:24.754Z,35
2018-05-25T08:55:45.961Z,35
2018-05-25T08:56:07.852Z,35
2018-05-25T08:56:28.405Z,35
2018-05-25T08:56:50.924Z,35
2018-05-25T08:57:11.488Z,35
2018-05-25T08:57:31.952Z,30
2018-05-25T08:57:52.578Z,30
2018-05-25T08:58:13.289Z,35
2018-05-25T08:58:33.974Z,35
2018-05-25T08:58:55.432Z,30
2018-05-25T08:59:15.930Z,35
2018-05-25T08:59:36.572Z,35
2018-05-25T08:59:58.427Z,35
2018-05-25T09:00:19.292Z,35
2018-05-25T09:00:40.195Z,35
2018-05-25T09:01:01.440Z,35
2018-05-25T09:01:22.330Z,35
2018-05-25T09:01:43.095Z,35
2018-05-25T09:02:03.777Z,35
2018-05-25T09:02:24.607Z,35
2018-05-25T09:02:45.214Z,35
2018-05-25T09:03:06.513Z,35
2018-05-25T09:03:29.317Z,35
2018-05-25T09:03:51.631Z,35
2018-05-25T09:04:12.358Z,35
2018-05-25T09:04:35.536Z,30
2018-05-25T09:04:55.920Z,30
2018-05-25T09:05:17.387Z,30
2018-05-25T09:05:39.646Z,30
2018-05-25T09:06:00.873Z,30
2018-05-25T09:06:21.836Z,30
2018-05-25T09:06:42.651Z,30
2018-05-25T09:07:03.193Z,30
2018-05-25T09:07:24.098Z,30
2018-05-25T09:07:45.056Z,30
2018-05-25T09:08:05.906Z,30
2018-05-25T09:08:27.935Z,30
2018-05-25T09:08:48.876Z,30
2018-05-25T09:09:10.111Z,30
2018-05-25T09:09:31.370Z,30
2018-05-25T09:09:51.995Z,30
2018-05-25T09:10:13.546Z,30
2018-05-25T09:10:35.826Z,30
2018-05-25T09:10:56.338Z,30
2018-05-25T09:11:17.390Z,30
2018-05-25T09:11:37.918Z,30
2018-05-25T09:11:59.874Z,30
2018-05-25T09:12:21.441Z,30
2018-05-25T09:12:44.385Z,30
2018-05-25T09:13:04.992Z,30
2018-05-25T09:13:25.949Z,30
2018-05-25T09:13:47.477Z,30
2018-05-25T09:14:08.406Z,30
2018-05-25T09:14:29.201Z,30
2018-05-25T09:14:50.119Z,30
2018-05-25T09:15:11.681Z,30
2018-05-25T09:15:33.260Z,30
2018-05-25T09:15:54.134Z,30
2018-05-25T09:16:15.558Z,30
2018-05-25T09:16:37.022Z,30
2018-05-25T09:16:57.917Z,30
2018-05-25T09:17:19.150Z,30
2018-05-25T09:17:40.559Z,30
2018-05-25T09:18:01.877Z,30
2018-05-25T09:18:22.543Z,30
2018-05-25T09:18:43.287Z,30
2018-05-25T09:19:04.781Z,30
2018-05-25T09:19:25.288Z,30
2018-05-25T09:19:46.395Z,30
2018-05-25T09:20:07.034Z,30
2018-05-25T09:20:27.628Z,30
2018-05-25T09:20:48.074Z,30
2018-05-25T09:21:08.572Z,30
2018-05-25T09:21:29.938Z,30
2018-05-25T09:21:50.498Z,30
2018-05-25T09:22:12.044Z,30
2018-05-25T09:22:32.614Z,30
2018-05-25T09:22:53.249Z,30
2018-05-25T09:23:13.793Z,30
2018-05-25T09:23:34.183Z,30
2018-05-25T09:23:54.960Z,30
2018-05-25T09:24:16.588Z,30
2018-05-25T09:24:39.090Z,35
2018-05-25T09:24:59.838Z,35
2018-05-25T09:25:20.458Z,30
2018-05-25T09:25:41.909Z,35
2018-05-25T09:26:03.464Z,35
2018-05-25T09:26:24.337Z,35
2018-05-25T09:26:45.630Z,35
2018-05-25T09:27:07.134Z,35
2018-05-25T09:27:28.375Z,35
2018-05-25T09:27:48.861Z,35
2018-05-25T09:28:09.276Z,35
2018-05-25T09:28:31.019Z,35
2018-05-25T09:28:52.405Z,35
2018-05-25T09:29:13.422Z,35
2018-05-25T09:29:34.325Z,35
2018-05-25T09:29:54.967Z,35
2018-05-25T09:30:16.062Z,35
2018-05-25T09:30:37.879Z,35
2018-05-25T09:30:58.909Z,35
2018-05-25T09:31:20.383Z,35
2018-05-25T09:31:42.001Z,35
2018-05-25T09:32:02.795Z,35
2018-05-25T09:32:23.294Z,35
2018-05-25T09:32:44.037Z,35
2018-05-25T09:33:04.716Z,35
2018-05-25T09:33:25.460Z,35
2018-05-25T09:33:46.036Z,35
2018-05-25T09:34:07.411Z,35
2018-05-25T09:34:28.216Z,35
2018-05-25T09:34:49.856Z,35
2018-05-25T09:35:11.458Z,35
2018-05-25T09:35:32.915Z,35
2018-05-25T09:35:54.042Z,35
2018-05-25T09:36:15.301Z,35
2018-05-25T09:36:35.894Z,35
2018-05-25T09:36:57.361Z,35
2018-05-25T09:37:18.365Z,35
2018-05-25T09:37:39.295Z,35
2018-05-25T09:37:59.895Z,35
2018-05-25T09:38:20.429Z,35
2018-05-25T09:38:41.432Z,35
2018-05-25T09:39:02.078Z,35
2018-05-25T09:39:22.827Z,35
2018-05-25T09:39:43.704Z,35
2018-05-25T09:40:04.750Z,35
2018-05-25T09:40:25.253Z,35
2018-05-25T09:40:45.949Z,35
2018-05-25T09:41:06.640Z,35
2018-05-25T09:41:27.213Z,35
2018-05-25T09:41:48.111Z,40
2018-05-25T09:42:08.985Z,40
2018-05-25T09:42:29.846Z,40
2018-05-25T09:42:51.361Z,40
2018-05-25T09:43:12.112Z,40
2018-05-25T09:43:33.369Z,40
2018-05-25T09:43:56.133Z,40
2018-05-25T09:44:17.160Z,40
2018-05-25T09:44:38.303Z,40
2018-05-25T09:44:58.897Z,40
2018-05-25T09:45:21.898Z,40
2018-05-25T09:45:43.661Z,40
2018-05-25T09:46:05.559Z,40
2018-05-25T09:46:26.438Z,40
2018-05-25T09:46:47.542Z,40
2018-05-25T09:47:08.937Z,40
2018-05-25T09:47:30.732Z,40
2018-05-25T09:47:51.891Z,40
2018-05-25T09:48:13.421Z,40
2018-05-25T09:48:34.087Z,40
2018-05-25T09:48:55.201Z,40
2018-05-25T09:49:17.365Z,40
2018-05-25T09:49:37.913Z,35
2018-05-25T09:49:58.250Z,35
2018-05-25T09:50:18.861Z,35